createdAt,value
2023-05-21T00:01:37.047Z,12.30
2023-05-21T00:04:05.471Z,12.25
2023-05-21T00:06:32.583Z,12.09
2023-05-21T00:08:58.981Z,12.06
2023-05-21T00:11:25.354Z,12.04
2023-05-21T00:13:51.758Z,12.03
2023-05-21T00:16:18.183Z,11.98
2023-05-21T00:18:44.567Z,11.93
2023-05-21T00:21:11.510Z,11.87
2023-05-21T00:23:47.461Z,11.80
2023-05-21T00:26:13.811Z,11.76
2023-05-21T00:28:40.148Z,11.71
2023-05-21T00:31:06.571Z,11.67
2023-05-21T00:33:33.334Z,11.64
2023-05-21T00:35:59.932Z,11.56
2023-05-21T00:38:27.200Z,11.44
2023-05-21T00:40:54.281Z,11.38
2023-05-21T00:43:25.371Z,11.30
2023-05-21T00:45:53.099Z,11.27
2023-05-21T00:48:20.287Z,11.25
2023-05-21T00:50:46.933Z,11.26
2023-05-21T00:53:14.689Z,11.30
2023-05-21T00:55:41.141Z,11.32
2023-05-21T00:58:08.415Z,11.29
2023-05-21T01:00:36.689Z,11.26
2023-05-21T01:03:03.842Z,11.31
2023-05-21T01:05:30.534Z,11.31
2023-05-21T01:07:58.002Z,11.28
2023-05-21T01:10:25.625Z,11.31
2023-05-21T01:12:52.621Z,11.26
2023-05-21T01:15:19.810Z,11.28
2023-05-21T01:17:48.060Z,11.33
2023-05-21T01:20:17.257Z,11.33
2023-05-21T01:22:51.240Z,11.36
2023-05-21T01:25:17.631Z,11.31
2023-05-21T01:27:44.033Z,11.35
2023-05-21T01:30:11.681Z,11.26
2023-05-21T01:32:44.783Z,11.17
2023-05-21T01:35:15.137Z,11.17
2023-05-21T01:37:47.282Z,11.21
2023-05-21T01:40:17.644Z,11.21
2023-05-21T01:42:45.249Z,11.15
2023-05-21T01:45:14.114Z,11.14
2023-05-21T01:47:41.588Z,11.09
2023-05-21T01:50:08.742Z,11.01
2023-05-21T01:52:35.785Z,10.98
2023-05-21T01:55:02.923Z,10.91
2023-05-21T01:57:29.948Z,10.92
2023-05-21T01:59:57.355Z,10.95
2023-05-21T02:02:23.691Z,10.91
2023-05-21T02:04:50.814Z,10.82
2023-05-21T02:07:17.664Z,10.81
2023-05-21T02:09:44.518Z,10.73
2023-05-21T02:12:10.824Z,10.67
2023-05-21T02:14:38.474Z,10.69
2023-05-21T02:17:05.258Z,10.72
2023-05-21T02:19:31.599Z,10.78
2023-05-21T02:21:57.992Z,10.72
2023-05-21T02:24:24.347Z,10.70
2023-05-21T02:26:51.613Z,10.62
2023-05-21T02:29:18.378Z,10.57
2023-05-21T02:31:45.451Z,10.51
2023-05-21T02:34:11.822Z,10.45
2023-05-21T02:36:40.757Z,10.38
2023-05-21T02:39:07.096Z,10.37
2023-05-21T02:41:33.469Z,10.31
2023-05-21T02:43:59.769Z,10.17
2023-05-21T02:46:26.230Z,10.12
2023-05-21T02:48:53.284Z,10.06
2023-05-21T02:51:19.708Z,10.06
2023-05-21T02:53:46.045Z,10.10
2023-05-21T02:56:12.381Z,10.08
2023-05-21T02:58:38.758Z,10.02
2023-05-21T03:01:05.234Z,9.98
2023-05-21T03:03:31.713Z,9.95
2023-05-21T03:05:58.824Z,9.89
2023-05-21T03:08:25.747Z,9.91
2023-05-21T03:10:52.080Z,9.90
2023-05-21T03:13:18.484Z,9.97
2023-05-21T03:15:45.860Z,9.94
2023-05-21T03:18:12.424Z,9.93
2023-05-21T03:20:42.912Z,9.94
2023-05-21T03:23:13.555Z,9.96
2023-05-21T03:25:41.948Z,9.91
2023-05-21T03:28:09.310Z,9.91
2023-05-21T03:30:36.266Z,9.89
2023-05-21T03:33:04.201Z,9.84
2023-05-21T03:35:30.554Z,9.77
2023-05-21T03:37:56.860Z,9.78
2023-05-21T03:40:24.012Z,9.73
2023-05-21T03:42:50.346Z,9.73
2023-05-21T03:45:16.672Z,9.73
2023-05-21T03:47:43.142Z,9.73
2023-05-21T03:50:10.391Z,9.71
2023-05-21T03:52:36.744Z,9.73
2023-05-21T03:55:03.364Z,9.83
2023-05-21T03:57:30.368Z,9.85
2023-05-21T03:59:58.186Z,9.87
2023-05-21T04:02:25.851Z,9.89
2023-05-21T04:04:53.039Z,9.96
2023-05-21T04:07:19.610Z,10.04
2023-05-21T04:09:45.927Z,10.05
2023-05-21T04:12:12.317Z,10.08
2023-05-21T04:14:39.307Z,10.20
2023-05-21T04:17:05.867Z,10.29
2023-05-21T04:19:32.665Z,10.32
2023-05-21T04:21:59.149Z,10.36
2023-05-21T04:24:25.508Z,10.44
2023-05-21T04:26:51.840Z,10.52
2023-05-21T04:29:20.337Z,10.61
2023-05-21T04:31:47.638Z,10.69
2023-05-21T04:34:17.192Z,10.78
2023-05-21T04:36:44.539Z,10.85
2023-05-21T04:39:11.312Z,10.92
2023-05-21T04:41:38.139Z,11.00
2023-05-21T04:44:05.057Z,11.13
2023-05-21T04:46:31.445Z,11.18
2023-05-21T04:49:02.130Z,11.25
2023-05-21T04:51:28.531Z,11.34
2023-05-21T04:53:55.363Z,11.45
2023-05-21T04:56:21.809Z,11.55
2023-05-21T04:58:48.698Z,11.63
2023-05-21T05:01:15.414Z,11.75
2023-05-21T05:03:41.867Z,11.91
2023-05-21T05:06:08.854Z,12.03
2023-05-21T05:08:35.261Z,12.13
2023-05-21T05:11:02.033Z,12.29
2023-05-21T05:13:28.409Z,12.37
2023-05-21T05:15:54.921Z,12.53
2023-05-21T05:18:21.249Z,12.62
2023-05-21T05:20:47.634Z,12.72
2023-05-21T05:23:14.869Z,12.88
2023-05-21T05:25:41.209Z,12.96
2023-05-21T05:28:07.541Z,13.09
2023-05-21T05:30:34.937Z,13.21
2023-05-21T05:33:01.330Z,13.27
2023-05-21T05:35:27.699Z,13.38
2023-05-21T05:37:54.052Z,13.46
2023-05-21T05:40:21.054Z,13.59
2023-05-21T05:42:48.666Z,13.66
2023-05-21T05:45:15.162Z,13.75
2023-05-21T05:47:41.541Z,13.88
2023-05-21T05:50:08.388Z,13.98
2023-05-21T05:52:34.779Z,14.11
2023-05-21T05:55:01.115Z,14.24
2023-05-21T05:57:28.119Z,14.38
2023-05-21T05:59:54.458Z,14.52
2023-05-21T06:02:20.898Z,14.61
2023-05-21T06:04:47.316Z,14.74
2023-05-21T06:07:13.666Z,14.80
2023-05-21T06:09:40.195Z,14.92
2023-05-21T06:12:07.249Z,15.05
2023-05-21T06:14:34.239Z,15.24
2023-05-21T06:17:00.578Z,15.32
2023-05-21T06:19:27.050Z,15.53
2023-05-21T06:21:53.447Z,15.71
2023-05-21T06:24:20.467Z,15.93
2023-05-21T06:26:46.802Z,16.21
2023-05-21T06:29:15.333Z,16.35
2023-05-21T06:31:42.578Z,16.64
2023-05-21T06:34:09.901Z,16.95
2023-05-21T06:36:36.658Z,17.16
2023-05-21T06:39:03.228Z,17.27
2023-05-21T06:41:29.586Z,17.33
2023-05-21T06:43:56.084Z,17.61
2023-05-21T06:46:22.569Z,17.88
2023-05-21T06:48:49.722Z,18.06
2023-05-21T06:51:16.100Z,18.30
2023-05-21T06:53:42.457Z,18.45
2023-05-21T06:56:08.799Z,18.54
2023-05-21T06:58:35.224Z,18.65
2023-05-21T07:01:01.828Z,18.51
2023-05-21T07:03:28.417Z,18.59
2023-05-21T07:05:56.914Z,18.64
2023-05-21T07:08:26.515Z,18.75
2023-05-21T07:10:52.915Z,18.77
2023-05-21T07:13:19.362Z,18.75
2023-05-21T07:15:45.785Z,18.84
2023-05-21T07:18:12.472Z,18.95
2023-05-21T07:20:38.904Z,19.06
2023-05-21T07:23:05.861Z,19.09
2023-05-21T07:25:32.262Z,19.22
2023-05-21T07:27:58.655Z,19.44
2023-05-21T07:30:25.137Z,19.13
2023-05-21T07:32:51.611Z,19.05
2023-05-21T07:35:18.652Z,19.00
2023-05-21T07:37:45.795Z,19.20
2023-05-21T07:40:13.535Z,19.34
2023-05-21T07:42:40.324Z,19.41
2023-05-21T07:45:07.694Z,19.61
2023-05-21T07:47:34.054Z,19.60
2023-05-21T07:50:00.442Z,19.53
2023-05-21T07:52:26.785Z,19.65
2023-05-21T07:54:53.185Z,19.58
2023-05-21T07:57:20.754Z,19.57
2023-05-21T07:59:47.103Z,19.55
2023-05-21T08:02:13.533Z,19.56
2023-05-21T08:04:41.314Z,19.53
2023-05-21T08:07:09.051Z,19.55
2023-05-21T08:09:35.922Z,19.59
2023-05-21T08:12:02.266Z,19.57
2023-05-21T08:14:29.255Z,19.60
2023-05-21T08:16:55.587Z,19.53
2023-05-21T08:19:22.106Z,19.63
2023-05-21T08:21:49.303Z,19.58
2023-05-21T08:24:17.287Z,19.74
2023-05-21T08:26:44.363Z,19.83
2023-05-21T08:29:10.841Z,19.98
2023-05-21T08:31:39.582Z,19.95
2023-05-21T08:34:05.970Z,20.12
2023-05-21T08:36:32.302Z,20.21
2023-05-21T08:38:58.645Z,20.36
2023-05-21T08:41:26.230Z,20.40
2023-05-21T08:43:56.133Z,20.64
2023-05-21T08:46:23.511Z,20.74
2023-05-21T08:48:54.107Z,20.91
2023-05-21T08:51:20.870Z,21.12
2023-05-21T08:53:48.871Z,21.23
2023-05-21T08:56:16.977Z,21.34
2023-05-21T08:58:45.592Z,21.33
2023-05-21T09:01:12.189Z,21.49
2023-05-21T09:03:43.051Z,21.89
2023-05-21T09:06:13.376Z,22.21
2023-05-21T09:08:44.432Z,22.35
2023-05-21T09:11:11.031Z,22.65
2023-05-21T09:13:39.120Z,22.70
2023-05-21T09:16:07.077Z,22.89
2023-05-21T09:18:33.455Z,23.08
2023-05-21T09:21:24.706Z,23.20
2023-05-21T09:23:54.640Z,23.44
2023-05-21T09:26:21.948Z,23.40
2023-05-21T09:28:48.306Z,23.59
2023-05-21T09:31:14.661Z,23.81
2023-05-21T09:33:46.305Z,23.83
2023-05-21T09:36:12.634Z,24.05
2023-05-21T09:38:39.725Z,24.08
2023-05-21T09:41:06.319Z,24.44
2023-05-21T09:43:32.686Z,24.48
2023-05-21T09:46:01.994Z,24.93
2023-05-21T09:48:36.499Z,24.92
2023-05-21T09:51:14.368Z,25.02
2023-05-21T09:53:48.546Z,25.10
2023-05-21T09:56:15.129Z,25.08
2023-05-21T09:58:41.719Z,25.19
2023-05-21T10:01:10.556Z,25.40
2023-05-21T10:03:39.610Z,25.87
2023-05-21T10:06:08.626Z,26.20
2023-05-21T10:08:36.303Z,25.37
2023-05-21T10:11:05.332Z,26.13
2023-05-21T10:13:35.533Z,26.11
2023-05-21T10:16:02.378Z,26.13
2023-05-21T10:18:30.399Z,26.30
2023-05-21T10:20:58.615Z,26.50
2023-05-21T10:23:26.792Z,26.88
2023-05-21T10:25:53.761Z,27.47
2023-05-21T10:28:22.273Z,27.87
2023-05-21T10:30:49.035Z,27.88
2023-05-21T10:33:16.382Z,28.07
2023-05-21T10:35:46.347Z,28.12
2023-05-21T10:38:14.029Z,28.19
2023-05-21T10:40:40.572Z,28.07
2023-05-21T10:43:40.695Z,27.98
2023-05-21T10:46:29.457Z,28.57
2023-05-21T10:49:07.033Z,28.53
2023-05-21T10:51:41.897Z,28.65
2023-05-21T10:54:39.024Z,28.58
2023-05-21T10:57:16.225Z,28.34
2023-05-21T10:59:45.423Z,28.22
2023-05-21T11:02:14.425Z,27.96
2023-05-21T11:04:43.537Z,27.42
2023-05-21T11:07:11.952Z,27.54
2023-05-21T11:09:38.348Z,27.70
2023-05-21T11:12:07.361Z,27.64
2023-05-21T11:14:36.700Z,28.18
2023-05-21T11:17:10.352Z,28.65
2023-05-21T11:19:38.694Z,28.85
2023-05-21T11:22:13.269Z,29.39
2023-05-21T11:24:41.054Z,28.60
2023-05-21T11:27:10.929Z,28.69
2023-05-21T11:29:40.036Z,28.87
2023-05-21T11:32:08.897Z,29.36
2023-05-21T11:34:40.187Z,29.55
2023-05-21T11:37:28.293Z,29.15
2023-05-21T11:39:55.893Z,29.77
2023-05-21T11:42:33.174Z,29.43
2023-05-21T11:45:00.764Z,28.68
2023-05-21T11:47:28.916Z,29.98
2023-05-21T11:49:56.145Z,29.97
2023-05-21T11:52:23.117Z,29.62
2023-05-21T11:54:53.386Z,29.95
2023-05-21T11:57:19.957Z,30.57
2023-05-21T11:59:46.822Z,30.53
2023-05-21T12:02:15.840Z,30.98
2023-05-21T12:04:43.173Z,30.98
2023-05-21T12:07:12.492Z,31.25
2023-05-21T12:09:39.448Z,31.28
2023-05-21T12:12:07.498Z,30.85
2023-05-21T12:14:41.092Z,30.11
2023-05-21T12:17:07.468Z,29.26
2023-05-21T12:19:34.207Z,29.69
2023-05-21T12:22:05.551Z,29.45
2023-05-21T12:24:32.502Z,29.18
2023-05-21T12:27:00.627Z,29.17
2023-05-21T12:29:27.634Z,28.65
2023-05-21T12:31:54.043Z,28.67
2023-05-21T12:34:40.138Z,28.75
2023-05-21T12:37:08.205Z,28.72
2023-05-21T12:39:41.131Z,27.51
2023-05-21T12:42:07.739Z,27.10
2023-05-21T12:44:36.617Z,27.38
2023-05-21T12:47:03.417Z,27.12
2023-05-21T12:49:34.571Z,27.38
2023-05-21T12:52:02.921Z,27.71
2023-05-21T12:54:32.942Z,27.60
2023-05-21T12:57:06.049Z,27.59
2023-05-21T12:59:43.822Z,27.80
2023-05-21T13:02:14.399Z,27.77
2023-05-21T13:04:40.769Z,28.21
2023-05-21T13:07:07.134Z,28.52
2023-05-21T13:09:34.116Z,28.64
2023-05-21T13:12:00.444Z,28.52
2023-05-21T13:14:26.758Z,28.33
2023-05-21T13:16:53.122Z,27.97
2023-05-21T13:19:19.523Z,27.86
2023-05-21T13:21:45.931Z,27.87
2023-05-21T13:24:12.296Z,27.96
2023-05-21T13:26:39.309Z,28.02
2023-05-21T13:29:05.714Z,28.13
2023-05-21T13:31:32.033Z,28.14
2023-05-21T13:33:58.326Z,28.01
2023-05-21T13:36:24.728Z,28.06
2023-05-21T13:38:51.037Z,28.07
2023-05-21T13:41:17.391Z,27.57
2023-05-21T13:43:44.395Z,27.90
2023-05-21T13:46:10.795Z,28.33
2023-05-21T13:48:37.143Z,28.63
2023-05-21T13:51:03.542Z,28.51
2023-05-21T13:53:29.881Z,28.58
2023-05-21T13:55:56.297Z,28.23
2023-05-21T13:58:22.606Z,28.13
2023-05-21T14:00:49.749Z,28.15
2023-05-21T14:03:16.215Z,28.02
2023-05-21T14:05:42.530Z,27.50
2023-05-21T14:08:08.957Z,27.47
2023-05-21T14:10:35.859Z,27.13
2023-05-21T14:13:11.978Z,26.74
2023-05-21T14:15:45.328Z,26.65
2023-05-21T14:18:12.431Z,26.75
2023-05-21T14:20:38.876Z,26.82
2023-05-21T14:23:08.684Z,26.85
2023-05-21T14:25:35.252Z,26.93
2023-05-21T14:28:04.860Z,26.72
2023-05-21T14:30:31.258Z,26.99
2023-05-21T14:32:58.041Z,27.22
2023-05-21T14:35:25.283Z,27.30
2023-05-21T14:37:52.751Z,27.25
2023-05-21T14:40:19.163Z,27.45
2023-05-21T14:42:45.523Z,27.55
2023-05-21T14:45:19.207Z,27.63
2023-05-21T14:47:47.213Z,27.67
2023-05-21T14:50:14.723Z,27.80
2023-05-21T14:52:42.473Z,27.92
2023-05-21T14:55:09.429Z,27.97
2023-05-21T14:57:35.794Z,27.97
2023-05-21T15:00:02.190Z,28.02
2023-05-21T15:02:28.731Z,27.82
2023-05-21T15:04:55.666Z,27.67
2023-05-21T15:07:22.044Z,27.46
2023-05-21T15:09:49.057Z,27.36
2023-05-21T15:12:15.369Z,27.48
2023-05-21T15:14:41.771Z,27.41
2023-05-21T15:17:11.111Z,27.27
2023-05-21T15:19:37.471Z,27.26
2023-05-21T15:22:03.987Z,27.47
2023-05-21T15:24:30.365Z,27.53
2023-05-21T15:26:57.371Z,27.19
2023-05-21T15:29:23.860Z,27.12
2023-05-21T15:31:50.225Z,26.92
2023-05-21T15:34:17.315Z,26.73
2023-05-21T15:36:43.649Z,26.93
2023-05-21T15:39:10.061Z,27.05
2023-05-21T15:41:37.050Z,26.94
2023-05-21T15:44:04.775Z,26.90
2023-05-21T15:46:34.242Z,26.73
2023-05-21T15:49:00.629Z,26.87
2023-05-21T15:51:26.970Z,26.91
2023-05-21T15:53:53.303Z,26.76
2023-05-21T15:56:21.055Z,26.69
2023-05-21T15:58:50.421Z,26.79
2023-05-21T16:01:17.987Z,26.74
2023-05-21T16:03:44.485Z,26.75
2023-05-21T16:06:10.864Z,26.67
2023-05-21T16:08:37.247Z,26.80
2023-05-21T16:11:03.696Z,26.49
2023-05-21T16:13:30.266Z,26.49
2023-05-21T16:15:56.560Z,26.45
2023-05-21T16:18:26.388Z,26.36
2023-05-21T16:20:54.537Z,26.29
2023-05-21T16:23:20.995Z,26.35
2023-05-21T16:25:47.517Z,26.37
2023-05-21T16:28:13.898Z,26.41
2023-05-21T16:30:40.409Z,26.14
2023-05-21T16:33:07.043Z,26.11
2023-05-21T16:35:34.099Z,26.29
2023-05-21T16:38:02.377Z,26.19
2023-05-21T16:40:30.682Z,26.10
2023-05-21T16:42:57.125Z,26.16
2023-05-21T16:45:23.590Z,26.16
2023-05-21T16:47:50.840Z,26.08
2023-05-21T16:50:17.678Z,26.09
2023-05-21T16:52:44.958Z,26.04
2023-05-21T16:55:11.520Z,25.99
2023-05-21T16:57:37.890Z,25.96
2023-05-21T17:00:06.993Z,25.89
2023-05-21T17:02:33.639Z,25.92
2023-05-21T17:04:59.989Z,25.88
2023-05-21T17:07:26.354Z,26.17
2023-05-21T17:09:53.428Z,26.86
2023-05-21T17:12:19.850Z,27.81
2023-05-21T17:14:46.235Z,28.20
2023-05-21T17:17:12.680Z,28.69
2023-05-21T17:19:39.072Z,28.08
2023-05-21T17:22:05.682Z,27.50
2023-05-21T17:24:32.059Z,26.76
2023-05-21T17:26:59.132Z,26.08
2023-05-21T17:29:25.699Z,25.53
2023-05-21T17:31:52.166Z,25.01
2023-05-21T17:34:18.649Z,24.78
2023-05-21T17:36:45.257Z,24.50
2023-05-21T17:39:11.607Z,24.16
2023-05-21T17:41:38.045Z,24.00
2023-05-21T17:44:05.208Z,23.80
2023-05-21T17:46:31.746Z,23.66
2023-05-21T17:48:58.199Z,23.56
2023-05-21T17:51:24.664Z,23.41
2023-05-21T17:53:51.017Z,23.23
2023-05-21T17:56:17.363Z,23.06
2023-05-21T17:58:43.745Z,22.90
2023-05-21T18:01:10.853Z,22.74
2023-05-21T18:03:37.249Z,22.53
2023-05-21T18:06:04.271Z,22.35
2023-05-21T18:08:30.684Z,22.16
2023-05-21T18:10:57.563Z,21.97
2023-05-21T18:13:23.900Z,21.80
2023-05-21T18:15:50.395Z,21.69
2023-05-21T18:18:19.852Z,21.56
2023-05-21T18:20:48.172Z,21.35
2023-05-21T18:23:14.617Z,21.18
2023-05-21T18:25:41.026Z,21.05
2023-05-21T18:28:08.232Z,20.83
2023-05-21T18:30:35.207Z,20.60
2023-05-21T18:33:02.107Z,20.40
2023-05-21T18:35:30.315Z,20.23
2023-05-21T18:37:57.282Z,20.03
2023-05-21T18:40:27.965Z,19.84
2023-05-21T18:42:57.732Z,19.69
2023-05-21T18:45:24.309Z,19.55
2023-05-21T18:47:51.077Z,19.40
2023-05-21T18:50:18.865Z,19.18
2023-05-21T18:52:46.173Z,19.02
2023-05-21T18:55:13.512Z,18.90
2023-05-21T18:57:40.138Z,18.80
2023-05-21T19:00:08.720Z,18.67
2023-05-21T19:02:35.430Z,18.49
2023-05-21T19:05:02.224Z,18.34
2023-05-21T19:07:28.700Z,18.23
2023-05-21T19:09:55.963Z,18.09
2023-05-21T19:12:22.457Z,18.02
2023-05-21T19:14:48.858Z,18.04
2023-05-21T19:17:15.330Z,17.97
2023-05-21T19:19:44.860Z,18.00
2023-05-21T19:22:11.258Z,17.94
2023-05-21T19:24:37.840Z,17.83
2023-05-21T19:27:05.764Z,17.73
2023-05-21T19:29:32.321Z,17.63
2023-05-21T19:31:58.764Z,17.54
2023-05-21T19:34:26.082Z,17.47
2023-05-21T19:36:53.697Z,17.40
2023-05-21T19:39:20.448Z,17.28
2023-05-21T19:41:46.904Z,17.14
2023-05-21T19:44:14.100Z,17.10
2023-05-21T19:46:40.635Z,16.92
2023-05-21T19:49:09.697Z,16.85
2023-05-21T19:51:36.245Z,16.70
2023-05-21T19:54:02.684Z,16.64
2023-05-21T19:56:29.098Z,16.46
2023-05-21T19:58:55.487Z,16.43
2023-05-21T20:01:22.775Z,16.29
2023-05-21T20:03:49.345Z,16.19
2023-05-21T20:06:18.072Z,16.11
2023-05-21T20:08:44.566Z,15.96
2023-05-21T20:11:10.994Z,15.84
2023-05-21T20:13:37.421Z,15.70
2023-05-21T20:16:04.400Z,15.76
2023-05-21T20:18:31.536Z,15.70
2023-05-21T20:20:57.953Z,15.59
2023-05-21T20:23:24.464Z,15.57
2023-05-21T20:25:50.953Z,15.44
2023-05-21T20:28:17.889Z,15.33
2023-05-21T20:30:56.796Z,15.22
2023-05-21T20:33:24.556Z,15.10
2023-05-21T20:35:58.790Z,15.07
2023-05-21T20:38:25.439Z,14.98
2023-05-21T20:40:52.266Z,14.89
2023-05-21T20:43:19.248Z,14.80
2023-05-21T20:45:46.721Z,14.72
2023-05-21T20:48:14.511Z,14.64
2023-05-21T20:50:41.422Z,14.57
2023-05-21T20:53:08.612Z,14.52
2023-05-21T20:55:35.122Z,14.41
2023-05-21T20:58:02.032Z,14.29
2023-05-21T21:00:28.536Z,14.21
2023-05-21T21:02:55.538Z,14.27
2023-05-21T21:05:23.587Z,14.34
2023-05-21T21:07:49.980Z,14.39
2023-05-21T21:10:17.378Z,14.35
2023-05-21T21:12:43.879Z,14.32
2023-05-21T21:15:10.392Z,14.24
2023-05-21T21:17:36.874Z,14.17
2023-05-21T21:20:05.307Z,14.14
2023-05-21T21:22:31.713Z,14.08
2023-05-21T21:24:58.291Z,13.96
2023-05-21T21:27:25.294Z,13.87
2023-05-21T21:29:51.760Z,13.83
2023-05-21T21:32:18.273Z,13.74
2023-05-21T21:34:44.816Z,13.74
2023-05-21T21:37:11.674Z,13.66
2023-05-21T21:39:38.289Z,13.63
2023-05-21T21:42:05.452Z,13.59
2023-05-21T21:44:32.527Z,13.57
2023-05-21T21:46:58.979Z,13.53
2023-05-21T21:49:25.375Z,13.41
2023-05-21T21:51:57.226Z,13.33
2023-05-21T21:54:23.722Z,13.30
2023-05-21T21:56:50.454Z,13.28
2023-05-21T21:59:16.839Z,13.21
2023-05-21T22:01:44.188Z,13.14
2023-05-21T22:04:10.686Z,13.03
2023-05-21T22:06:38.266Z,13.00
2023-05-21T22:09:04.914Z,12.95
2023-05-21T22:11:31.480Z,12.96
2023-05-21T22:13:59.638Z,12.92
2023-05-21T22:16:27.525Z,12.81
2023-05-21T22:18:54.749Z,12.67
2023-05-21T22:21:26.200Z,12.72
2023-05-21T22:23:58.020Z,12.71
2023-05-21T22:26:24.434Z,12.59
2023-05-21T22:28:50.835Z,12.53
2023-05-21T22:31:17.453Z,12.48
2023-05-21T22:33:43.995Z,12.39
2023-05-21T22:36:11.125Z,12.31
2023-05-21T22:38:37.607Z,12.24
2023-05-21T22:41:04.139Z,12.17
2023-05-21T22:43:30.587Z,12.24
2023-05-21T22:45:56.964Z,12.16
2023-05-21T22:48:26.110Z,12.06
2023-05-21T22:50:53.734Z,11.99
2023-05-21T22:57:51.437Z,11.82
2023-05-21T23:00:18.645Z,11.95
2023-05-21T23:02:45.332Z,11.86
2023-05-21T23:05:11.792Z,11.81
2023-05-21T23:07:38.258Z,11.82
2023-05-21T23:10:05.419Z,11.83
2023-05-21T23:12:31.764Z,11.83
2023-05-21T23:14:58.767Z,11.80
2023-05-21T23:17:25.202Z,11.76
2023-05-21T23:19:52.002Z,11.65
2023-05-21T23:22:25.877Z,11.54
2023-05-21T23:24:53.401Z,11.45
2023-05-21T23:27:19.977Z,11.44
2023-05-21T23:29:46.350Z,11.32
2023-05-21T23:32:13.466Z,11.24
2023-05-21T23:34:39.812Z,11.22
2023-05-21T23:37:06.560Z,11.16
2023-05-21T23:39:32.936Z,11.14
2023-05-21T23:41:59.303Z,11.15
2023-05-21T23:44:25.766Z,11.12
2023-05-21T23:46:52.167Z,11.10
2023-05-21T23:49:19.160Z,11.09
2023-05-21T23:51:45.974Z,11.05
2023-05-21T23:54:12.358Z,10.94
2023-05-21T23:56:38.696Z,10.85
2023-05-21T23:59:05.069Z,10.75
